createdAt,value
2023-02-01T00:01:06.150Z,97886.40
2023-02-01T01:36:12.625Z,97837.20
2023-02-01T01:38:40.995Z,97819.60
2023-02-01T01:41:08.679Z,97820.40
2023-02-01T01:44:29.879Z,97815.40
2023-02-01T01:46:56.579Z,97810.40
2023-02-01T01:49:26.928Z,97803.60
2023-02-01T01:51:57.160Z,97812.40
2023-02-01T01:54:34.748Z,97804.60
2023-02-01T01:57:05.849Z,97807.80
2023-02-01T01:59:35.277Z,97806.60
2023-02-01T02:02:02.029Z,97802.60
2023-02-01T02:04:28.904Z,97805.40
2023-02-01T02:07:24.591Z,97812.80
2023-02-01T02:10:00.449Z,97817.00
2023-02-01T02:12:28.730Z,97820.40
2023-02-01T02:14:56.369Z,97817.80
2023-02-01T02:17:29.160Z,97814.60
2023-02-01T02:20:26.935Z,97815.00
2023-02-01T02:23:15.497Z,97816.00
2023-02-01T02:26:07.500Z,97819.80
2023-02-01T02:28:43.628Z,97816.20
2023-02-01T02:31:31.768Z,97816.40
2023-02-01T02:34:10.276Z,97821.20
2023-02-01T02:36:56.009Z,97819.80
2023-02-01T02:39:41.594Z,97822.00
2023-02-01T02:42:37.246Z,97819.20
2023-02-01T02:45:37.571Z,97816.80
2023-02-01T02:48:27.052Z,97821.60
2023-02-01T02:51:21.032Z,97816.20
2023-02-01T02:54:30.739Z,97812.60
2023-02-01T02:57:19.399Z,97815.60
2023-02-01T03:00:07.759Z,97809.40
2023-02-01T03:02:53.976Z,97808.00
2023-02-01T03:05:21.964Z,97808.00
2023-02-01T03:08:03.306Z,97802.20
2023-02-01T03:10:30.127Z,97798.60
2023-02-01T03:13:04.578Z,97799.80
2023-02-01T03:15:35.482Z,97796.00
2023-02-01T03:18:08.368Z,97798.40
2023-02-01T03:20:37.159Z,97794.00
2023-02-01T03:23:07.600Z,97798.20
2023-02-01T03:25:36.270Z,97800.40
2023-02-01T03:28:07.326Z,97791.60
2023-02-01T03:30:38.556Z,97782.20
2023-02-01T03:33:14.859Z,97792.80
2023-02-01T03:36:11.144Z,97794.80
2023-02-01T03:38:45.225Z,97786.60
2023-02-01T03:41:42.975Z,97777.80
2023-02-01T03:44:34.850Z,97781.00
2023-02-01T03:47:10.726Z,97769.40
2023-02-01T03:49:47.990Z,97760.80
2023-02-01T03:52:19.145Z,97759.20
2023-02-01T03:54:47.051Z,97758.20
2023-02-01T03:57:18.043Z,97757.00
2023-02-01T03:59:46.605Z,97753.20
2023-02-01T04:02:13.528Z,97752.40
2023-02-01T04:04:40.321Z,97743.60
2023-02-01T04:07:07.471Z,97738.20
2023-02-01T04:09:34.215Z,97746.80
2023-02-01T04:12:00.953Z,97737.00
2023-02-01T04:14:27.621Z,97741.20
2023-02-01T04:16:54.500Z,97737.00
2023-02-01T04:19:21.380Z,97736.60
2023-02-01T04:21:48.017Z,97738.40
2023-02-01T04:24:14.868Z,97721.40
2023-02-01T04:26:41.625Z,97741.40
2023-02-01T04:29:10.219Z,97739.00
2023-02-01T04:31:37.633Z,97746.20
2023-02-01T04:34:04.581Z,97744.60
2023-02-01T04:36:31.317Z,97744.60
2023-02-01T04:38:58.042Z,97743.40
2023-02-01T04:41:24.782Z,97750.80
2023-02-01T04:43:53.072Z,97751.00
2023-02-01T04:46:19.793Z,97741.00
2023-02-01T04:48:46.521Z,97736.40
2023-02-01T04:51:13.821Z,97743.80
2023-02-01T04:53:40.494Z,97739.80
2023-02-01T04:56:07.993Z,97729.40
2023-02-01T04:58:34.657Z,97723.80
2023-02-01T05:01:05.736Z,97723.00
2023-02-01T05:03:36.319Z,97722.60
2023-02-01T05:06:05.154Z,97728.00
2023-02-01T05:08:32.694Z,97717.80
2023-02-01T05:10:59.995Z,97725.80
2023-02-01T05:13:45.455Z,97731.00
2023-02-01T05:16:12.202Z,97728.00
2023-02-01T05:18:39.174Z,97721.80
2023-02-01T05:21:06.214Z,97732.00
2023-02-01T05:23:33.068Z,97743.40
2023-02-01T05:26:03.221Z,97732.40
2023-02-01T05:28:29.879Z,97739.40
2023-02-01T05:30:56.686Z,97722.00
2023-02-01T05:33:23.687Z,97713.00
2023-02-01T05:35:51.581Z,97717.40
2023-02-01T05:38:18.300Z,97714.60
2023-02-01T05:40:50.729Z,97721.20
2023-02-01T05:43:17.499Z,97723.60
2023-02-01T05:45:44.196Z,97726.00
2023-02-01T05:48:10.901Z,97722.80
2023-02-01T05:50:37.646Z,97731.20
2023-02-01T05:53:09.295Z,97733.20
2023-02-01T05:55:37.467Z,97730.60
2023-02-01T05:58:05.226Z,97737.40
2023-02-01T06:00:32.388Z,97727.60
2023-02-01T06:02:59.289Z,97731.00
2023-02-01T06:05:26.099Z,97733.00
2023-02-01T06:07:53.239Z,97741.40
2023-02-01T06:10:20.452Z,97740.80
2023-02-01T06:12:47.515Z,97736.40
2023-02-01T06:15:16.746Z,97736.60
2023-02-01T06:17:45.400Z,97740.80
2023-02-01T06:20:14.499Z,97741.60
2023-02-01T06:22:41.443Z,97735.60
2023-02-01T06:25:10.745Z,97725.40
2023-02-01T06:27:38.028Z,97717.60
2023-02-01T06:30:06.191Z,97742.00
2023-02-01T06:32:33.739Z,97731.60
2023-02-01T06:35:01.660Z,97735.20
2023-02-01T06:37:31.177Z,97736.20
2023-02-01T06:39:58.060Z,97736.60
2023-02-01T06:42:24.884Z,97741.00
2023-02-01T06:44:51.728Z,97751.00
2023-02-01T06:47:18.381Z,97753.40
2023-02-01T06:49:45.208Z,97761.60
2023-02-01T06:52:11.909Z,97761.40
2023-02-01T06:54:38.897Z,97768.00
2023-02-01T06:57:05.849Z,97769.00
2023-02-01T06:59:32.531Z,97764.20
2023-02-01T07:01:59.291Z,97760.20
2023-02-01T07:04:26.158Z,97758.20
2023-02-01T07:06:52.905Z,97767.80
2023-02-01T07:09:19.636Z,97763.20
2023-02-01T07:11:46.377Z,97768.20
2023-02-01T07:14:13.622Z,97767.00
2023-02-01T07:16:40.519Z,97773.20
2023-02-01T07:19:07.315Z,97763.80
2023-02-01T07:21:34.006Z,97756.00
2023-02-01T07:24:01.013Z,97763.20
2023-02-01T07:26:27.810Z,97763.40
2023-02-01T07:28:54.557Z,97767.40
2023-02-01T07:31:22.713Z,97768.80
2023-02-01T07:33:52.662Z,97761.20
2023-02-01T07:36:20.228Z,97755.20
2023-02-01T07:38:50.241Z,97750.40
2023-02-01T07:41:17.497Z,97749.00
2023-02-01T07:43:44.762Z,97741.20
2023-02-01T07:46:12.362Z,97744.20
2023-02-01T07:48:40.276Z,97730.80
2023-02-01T07:51:11.153Z,97728.00
2023-02-01T07:53:38.927Z,97730.60
2023-02-01T07:56:18.628Z,97736.40
2023-02-01T07:58:50.137Z,97731.40
2023-02-01T08:01:25.787Z,97730.40
2023-02-01T08:03:58.089Z,97724.60
2023-02-01T08:06:25.961Z,97728.40
2023-02-01T08:08:53.823Z,97722.20
2023-02-01T08:11:22.391Z,97718.20
2023-02-01T08:13:49.768Z,97713.60
2023-02-01T08:16:18.720Z,97704.80
2023-02-01T08:18:46.407Z,97712.60
2023-02-01T08:21:25.862Z,97712.60
2023-02-01T08:23:52.933Z,97719.00
2023-02-01T08:26:25.504Z,97713.20
2023-02-01T08:28:57.965Z,97703.00
2023-02-01T08:31:26.859Z,97698.20
2023-02-01T08:33:56.669Z,97698.40
2023-02-01T08:36:25.333Z,97694.80
2023-02-01T08:38:52.162Z,97690.60
2023-02-01T08:41:21.481Z,97683.40
2023-02-01T08:43:49.090Z,97667.40
2023-02-01T08:46:17.094Z,97664.40
2023-02-01T08:48:44.169Z,97659.80
2023-02-01T08:51:12.753Z,97653.80
2023-02-01T08:53:43.917Z,97647.80
2023-02-01T08:56:13.022Z,97649.60
2023-02-01T08:58:40.229Z,97650.20
2023-02-01T09:01:10.164Z,97641.60
2023-02-01T09:03:37.128Z,97645.00
2023-02-01T09:06:06.398Z,97650.60
2023-02-01T09:08:34.419Z,97656.00
2023-02-01T09:11:03.779Z,97653.80
2023-02-01T09:13:30.912Z,97649.60
2023-02-01T09:15:58.137Z,97655.40
2023-02-01T09:18:25.148Z,97655.40
2023-02-01T09:20:52.051Z,97656.00
2023-02-01T09:23:21.458Z,97651.00
2023-02-01T09:25:51.365Z,97646.20
2023-02-01T09:28:19.223Z,97643.40
2023-02-01T09:30:46.267Z,97647.60
2023-02-01T09:33:13.163Z,97642.40
2023-02-01T09:35:39.978Z,97647.00
2023-02-01T09:38:06.720Z,97643.80
2023-02-01T09:40:36.462Z,97641.60
2023-02-01T09:43:15.752Z,97651.20
2023-02-01T09:46:18.770Z,97649.80
2023-02-01T09:48:47.736Z,97648.20
2023-02-01T09:51:20.008Z,97644.40
2023-02-01T09:53:53.030Z,97657.40
2023-02-01T09:56:27.715Z,97653.00
2023-02-01T09:59:03.913Z,97668.20
2023-02-01T10:01:30.825Z,97664.20
2023-02-01T10:04:06.506Z,97646.80
2023-02-01T10:06:48.228Z,97649.60
2023-02-01T10:09:32.000Z,97656.40
2023-02-01T10:12:14.057Z,97663.80
2023-02-01T10:14:49.847Z,97659.00
2023-02-01T10:17:26.935Z,97655.40
2023-02-01T10:19:59.611Z,97657.00
2023-02-01T10:23:19.491Z,97649.20
2023-02-01T10:25:55.253Z,97633.80
2023-02-01T10:28:25.199Z,97625.00
2023-02-01T10:30:58.350Z,97625.00
2023-02-01T10:33:28.699Z,97609.00
2023-02-01T10:36:36.799Z,97608.80
2023-02-01T10:39:05.675Z,97624.00
2023-02-01T10:41:41.231Z,97623.00
2023-02-01T10:44:14.324Z,97615.00
2023-02-01T10:46:41.560Z,97617.20
2023-02-01T10:49:35.822Z,97620.60
2023-02-01T10:52:25.835Z,97619.40
2023-02-01T10:54:54.211Z,97622.00
2023-02-01T10:57:27.060Z,97622.60
2023-02-01T10:59:54.043Z,97614.40
2023-02-01T11:02:33.903Z,97621.60
2023-02-01T11:05:06.187Z,97618.60
2023-02-01T11:07:33.772Z,97616.20
2023-02-01T11:10:00.614Z,97614.60
2023-02-01T11:12:38.878Z,97607.80
2023-02-01T11:15:17.675Z,97601.40
2023-02-01T11:17:46.791Z,97591.60
2023-02-01T11:20:15.498Z,97599.00
2023-02-01T11:22:54.091Z,97595.60
2023-02-01T11:25:22.867Z,97600.80
2023-02-01T11:27:55.314Z,97603.60
2023-02-01T11:30:39.986Z,97595.80
2023-02-01T11:33:08.216Z,97601.40
2023-02-01T11:35:40.329Z,97605.40
2023-02-01T11:38:39.634Z,97603.40
2023-02-01T11:41:15.041Z,97609.40
2023-02-01T11:44:27.396Z,97624.80
2023-02-01T11:46:54.073Z,97647.00
2023-02-01T11:49:27.947Z,97689.00
2023-02-01T11:52:03.758Z,97661.60
2023-02-01T11:54:47.800Z,97704.60
2023-02-01T11:57:40.298Z,97716.20
2023-02-01T12:00:30.385Z,97700.80
2023-02-01T12:02:59.963Z,97691.20
2023-02-01T12:05:27.461Z,97686.60
2023-02-01T12:08:17.274Z,97674.00
2023-02-01T12:10:59.174Z,97659.40
2023-02-01T12:13:53.442Z,97660.00
2023-02-01T12:16:41.908Z,97648.40
2023-02-01T12:19:44.131Z,97643.60
2023-02-01T12:22:36.776Z,97639.60
2023-02-01T12:25:18.875Z,97645.20
2023-02-01T12:27:45.478Z,97624.40
2023-02-01T12:30:43.422Z,97636.20
2023-02-01T12:33:19.213Z,97622.40
2023-02-01T12:36:26.935Z,97619.20
2023-02-01T12:39:05.411Z,97621.80
2023-02-01T12:41:38.345Z,97606.00
2023-02-01T12:44:10.856Z,97609.00
2023-02-01T12:46:49.834Z,97599.20
2023-02-01T12:49:28.796Z,97595.00
2023-02-01T12:52:01.571Z,97577.80
2023-02-01T12:55:07.721Z,97583.00
2023-02-01T12:57:43.050Z,97578.20
2023-02-01T13:00:26.765Z,97567.00
2023-02-01T13:02:58.135Z,97553.60
2023-02-01T13:05:32.658Z,97568.80
2023-02-01T13:08:05.675Z,97534.20
2023-02-01T13:10:48.260Z,97550.40
2023-02-01T13:13:17.863Z,97564.20
2023-02-01T13:15:58.018Z,97560.00
2023-02-01T13:18:33.379Z,97569.80
2023-02-01T13:21:05.562Z,97567.00
2023-02-01T13:23:37.590Z,97575.80
2023-02-01T13:26:04.701Z,97580.60
2023-02-01T13:28:52.989Z,97585.40
2023-02-01T13:32:00.126Z,97588.80
2023-02-01T13:34:50.183Z,97581.60
2023-02-01T13:37:32.183Z,97572.20
2023-02-01T13:40:31.295Z,97594.40
2023-02-01T13:43:07.004Z,97584.80
2023-02-01T13:45:38.501Z,97589.80
2023-02-01T13:48:07.852Z,97592.40
2023-02-01T13:50:42.002Z,97585.20
2023-02-01T13:53:19.383Z,97590.40
2023-02-01T13:55:55.418Z,97603.60
2023-02-01T13:58:31.171Z,97633.80
2023-02-01T14:01:22.853Z,97639.20
2023-02-01T14:03:49.561Z,97666.40
2023-02-01T14:06:18.403Z,97676.20
2023-02-01T14:08:48.350Z,97684.80
2023-02-01T14:11:51.974Z,97717.60
2023-02-01T14:14:18.575Z,97714.40
2023-02-01T14:16:54.635Z,97710.20
2023-02-01T14:19:24.252Z,97704.60
2023-02-01T14:21:57.938Z,97708.20
2023-02-01T14:24:33.837Z,97714.60
2023-02-01T14:27:22.440Z,97716.20
2023-02-01T14:29:59.245Z,97725.60
2023-02-01T14:32:32.049Z,97719.00
2023-02-01T14:35:02.374Z,97714.40
2023-02-01T14:37:38.378Z,97718.00
2023-02-01T14:40:14.485Z,97720.80
2023-02-01T14:42:44.052Z,97702.60
2023-02-01T14:45:20.228Z,97703.60
2023-02-01T14:47:52.591Z,97697.80
2023-02-01T14:50:33.388Z,97692.60
2023-02-01T14:53:05.036Z,97689.20
2023-02-01T14:55:39.882Z,97682.60
2023-02-01T14:58:20.438Z,97683.40
2023-02-01T15:00:59.651Z,97684.60
2023-02-01T15:03:44.389Z,97690.60
2023-02-01T15:06:40.935Z,97686.20
2023-02-01T15:09:29.804Z,97690.00
2023-02-01T15:11:58.282Z,97689.60
2023-02-01T15:14:26.077Z,97680.60
2023-02-01T15:16:54.933Z,97684.00
2023-02-01T15:19:24.383Z,97681.40
2023-02-01T15:21:58.112Z,97682.40
2023-02-01T15:24:24.847Z,97680.80
2023-02-01T15:26:53.908Z,97675.80
2023-02-01T15:29:28.726Z,97676.20
2023-02-01T15:31:55.949Z,97678.20
2023-02-01T15:34:22.906Z,97682.00
2023-02-01T15:37:02.354Z,97680.20
2023-02-01T15:39:32.891Z,97677.00
2023-02-01T15:42:10.147Z,97676.60
2023-02-01T15:44:47.276Z,97675.80
2023-02-01T15:47:20.937Z,97662.80
2023-02-01T15:49:52.971Z,97657.60
2023-02-01T15:52:19.628Z,97656.60
2023-02-01T15:54:56.213Z,97660.00
2023-02-01T15:57:31.824Z,97663.20
2023-02-01T16:00:05.980Z,97657.60
2023-02-01T16:02:46.068Z,97657.40
2023-02-01T16:05:28.227Z,97652.20
2023-02-01T16:08:04.974Z,97659.80
2023-02-01T16:10:33.288Z,97659.40
2023-02-01T16:13:01.394Z,97658.80
2023-02-01T16:15:30.870Z,97654.20
2023-02-01T16:17:57.577Z,97655.00
2023-02-01T16:20:24.307Z,97663.40
2023-02-01T16:22:51.045Z,97667.40
2023-02-01T16:25:17.731Z,97660.40
2023-02-01T16:27:44.484Z,97651.60
2023-02-01T16:30:11.844Z,97658.40
2023-02-01T16:32:41.668Z,97664.60
2023-02-01T16:35:23.051Z,97669.40
2023-02-01T16:37:50.142Z,97674.80
2023-02-01T16:40:19.243Z,97670.60
2023-02-01T16:42:48.983Z,97674.00
2023-02-01T16:45:15.672Z,97678.60
2023-02-01T16:47:49.113Z,97671.40
2023-02-01T16:50:23.341Z,97675.80
2023-02-01T16:52:51.182Z,97671.20
2023-02-01T16:55:21.030Z,97669.20
2023-02-01T16:57:48.173Z,97674.60
2023-02-01T17:00:24.583Z,97672.60
2023-02-01T17:02:52.885Z,97667.80
2023-02-01T17:05:19.638Z,97663.80
2023-02-01T17:07:47.173Z,97663.60
2023-02-01T17:10:33.302Z,97660.60
2023-02-01T17:13:03.347Z,97653.60
2023-02-01T17:15:35.671Z,97664.00
2023-02-01T17:18:04.793Z,97659.00
2023-02-01T17:20:33.149Z,97661.40
2023-02-01T17:23:00.818Z,97664.80
2023-02-01T17:25:30.956Z,97654.80
2023-02-01T17:27:57.657Z,97655.00
2023-02-01T17:30:25.009Z,97657.20
2023-02-01T17:32:52.335Z,97660.60
2023-02-01T17:35:23.636Z,97646.60
2023-02-01T17:37:52.489Z,97649.00
2023-02-01T17:40:20.367Z,97654.20
2023-02-01T17:42:47.312Z,97644.40
2023-02-01T17:45:24.861Z,97628.20
2023-02-01T17:47:52.167Z,97636.00
2023-02-01T17:50:19.207Z,97627.40
2023-02-01T17:52:47.204Z,97642.20
2023-02-01T17:55:23.577Z,97638.60
2023-02-01T17:57:51.478Z,97649.40
2023-02-01T18:00:20.704Z,97636.00
2023-02-01T18:02:47.932Z,97637.80
2023-02-01T18:05:38.782Z,97641.40
2023-02-01T18:08:07.189Z,97646.80
2023-02-01T18:10:34.908Z,97641.00
2023-02-01T18:13:04.149Z,97647.20
2023-02-01T18:15:32.624Z,97651.80
2023-02-01T18:18:00.695Z,97649.60
2023-02-01T18:20:28.845Z,97651.60
2023-02-01T18:22:56.317Z,97648.20
2023-02-01T18:25:28.604Z,97651.60
2023-02-01T18:27:57.663Z,97639.20
2023-02-01T18:30:31.106Z,97642.00
2023-02-01T18:32:58.228Z,97651.20
2023-02-01T18:35:27.542Z,97647.00
2023-02-01T18:37:56.678Z,97659.60
2023-02-01T18:40:30.497Z,97666.40
2023-02-01T18:42:58.572Z,97662.80
2023-02-01T18:45:36.650Z,97664.00
2023-02-01T18:48:05.058Z,97654.40
2023-02-01T18:50:34.661Z,97652.40
2023-02-01T18:53:03.968Z,97649.20
2023-02-01T18:55:35.105Z,97644.40
2023-02-01T18:58:04.684Z,97642.60
2023-02-01T19:00:31.757Z,97639.60
2023-02-01T19:02:59.719Z,97649.20
2023-02-01T19:05:27.722Z,97653.40
2023-02-01T19:07:55.170Z,97659.40
2023-02-01T19:10:24.222Z,97654.20
2023-02-01T19:12:53.180Z,97644.60
2023-02-01T19:15:20.750Z,97637.60
2023-02-01T19:17:50.607Z,97631.80
2023-02-01T19:20:20.423Z,97636.40
2023-02-01T19:22:48.382Z,97624.20
2023-02-01T19:25:25.583Z,97621.80
2023-02-01T19:27:53.333Z,97630.40
2023-02-01T19:30:22.127Z,97630.00
2023-02-01T19:32:51.540Z,97622.80
2023-02-01T19:35:21.544Z,97619.20
2023-02-01T19:37:49.743Z,97606.60
2023-02-01T19:40:20.320Z,97610.60
2023-02-01T19:42:48.560Z,97615.60
2023-02-01T19:45:16.275Z,97620.40
2023-02-01T19:47:43.613Z,97594.80
2023-02-01T19:50:16.539Z,97601.80
2023-02-01T19:52:45.915Z,97600.20
2023-02-01T19:55:14.027Z,97601.00
2023-02-01T19:57:40.918Z,97596.60
2023-02-01T20:00:17.014Z,97602.40
2023-02-01T20:02:44.079Z,97595.80
2023-02-01T20:05:12.088Z,97593.20
2023-02-01T20:07:38.920Z,97596.40
2023-02-01T20:10:06.367Z,97577.40
2023-02-01T20:12:33.916Z,97578.40
2023-02-01T20:15:02.838Z,97581.80
2023-02-01T20:17:33.164Z,97575.80
2023-02-01T20:20:00.296Z,97593.60
2023-02-01T20:22:27.678Z,97602.20
2023-02-01T20:24:57.536Z,97600.20
2023-02-01T20:27:27.537Z,97599.60
2023-02-01T20:29:54.447Z,97604.80
2023-02-01T20:32:24.151Z,97592.60
2023-02-01T20:34:53.618Z,97586.40
2023-02-01T20:37:21.808Z,97584.00
2023-02-01T20:39:49.561Z,97590.40
2023-02-01T20:42:16.396Z,97591.80
2023-02-01T20:44:43.213Z,97576.40
2023-02-01T20:47:10.405Z,97583.20
2023-02-01T20:49:40.536Z,97574.00
2023-02-01T20:52:07.693Z,97569.00
2023-02-01T20:54:34.584Z,97578.40
2023-02-01T20:57:02.876Z,97557.80
2023-02-01T20:59:30.011Z,97566.60
2023-02-01T21:01:57.357Z,97564.20
2023-02-01T21:04:27.631Z,97561.60
2023-02-01T21:06:56.595Z,97553.40
2023-02-01T21:09:25.266Z,97572.60
2023-02-01T21:11:53.510Z,97567.00
2023-02-01T21:14:21.015Z,97576.40
2023-02-01T21:16:49.480Z,97574.40
2023-02-01T21:19:19.801Z,97553.80
2023-02-01T21:21:47.062Z,97550.40
2023-02-01T21:24:14.545Z,97541.40
2023-02-01T21:26:42.430Z,97546.20
2023-02-01T21:29:13.143Z,97528.20
2023-02-01T21:31:42.181Z,97525.20
2023-02-01T21:34:09.587Z,97520.40
2023-02-01T21:36:36.637Z,97511.40
2023-02-01T21:39:09.284Z,97532.00
2023-02-01T21:41:56.146Z,97516.40
2023-02-01T21:44:24.354Z,97508.20
2023-02-01T21:46:52.142Z,97518.00
2023-02-01T21:49:19.983Z,97522.00
2023-02-01T21:51:48.348Z,97521.00
2023-02-01T21:54:15.765Z,97512.80
2023-02-01T21:56:43.595Z,97502.00
2023-02-01T21:59:11.024Z,97502.40
2023-02-01T22:01:40.413Z,97510.40
2023-02-01T22:04:07.823Z,97497.60
2023-02-01T22:06:38.680Z,97493.00
2023-02-01T22:09:05.943Z,97484.00
2023-02-01T22:11:33.973Z,97469.20
2023-02-01T22:14:00.817Z,97483.60
2023-02-01T22:16:31.429Z,97492.80
2023-02-01T22:18:59.211Z,97475.80
2023-02-01T22:21:27.667Z,97478.00
2023-02-01T22:23:56.319Z,97484.40
2023-02-01T22:26:24.324Z,97495.00
2023-02-01T22:28:51.393Z,97510.80
2023-02-01T22:31:19.496Z,97519.80
2023-02-01T22:33:49.537Z,97517.80
2023-02-01T22:36:17.609Z,97497.60
2023-02-01T22:38:46.757Z,97491.80
2023-02-01T22:41:14.846Z,97493.60
2023-02-01T22:43:42.329Z,97505.60
2023-02-01T22:46:14.058Z,97520.20
2023-02-01T22:48:43.900Z,97501.00
2023-02-01T22:51:25.039Z,97499.40
2023-02-01T22:54:00.150Z,97503.60
2023-02-01T22:56:34.722Z,97482.40
2023-02-01T22:59:04.765Z,97488.40
2023-02-01T23:01:33.272Z,97478.60
2023-02-01T23:04:02.445Z,97469.60
2023-02-01T23:06:31.757Z,97471.20
2023-02-01T23:09:11.773Z,97462.60
2023-02-01T23:11:39.752Z,97453.60
2023-02-01T23:14:07.186Z,97463.00
2023-02-01T23:16:34.976Z,97469.80
2023-02-01T23:19:03.679Z,97473.00
2023-02-01T23:21:31.334Z,97465.40
2023-02-01T23:24:00.438Z,97457.20
2023-02-01T23:26:29.693Z,97464.20
2023-02-01T23:28:58.975Z,97460.60
2023-02-01T23:31:30.520Z,97454.00
2023-02-01T23:33:59.878Z,97443.20
2023-02-01T23:36:28.463Z,97451.80
2023-02-01T23:38:55.313Z,97460.00
2023-02-01T23:41:23.894Z,97462.00
2023-02-01T23:44:00.542Z,97462.00
2023-02-01T23:46:32.842Z,97469.60
2023-02-01T23:49:02.024Z,97476.80
2023-02-01T23:51:30.616Z,97439.20
2023-02-01T23:53:59.943Z,97461.00
2023-02-01T23:56:33.444Z,97451.80
2023-02-01T23:59:02.287Z,97444.60
